sensor_id;sensor_type;location;lat;lon;timestamp;P1;durP1;ratioP1;P2;durP2;ratioP2
30068;SDS011;16894;49.456;10.644;2022-10-26T00:01:01;28.45;;;12.00;;
30068;SDS011;16894;49.456;10.644;2022-10-26T00:03:32;23.70;;;10.38;;
30068;SDS011;16894;49.456;10.644;2022-10-26T00:06:06;23.75;;;10.38;;
30068;SDS011;16894;49.456;10.644;2022-10-26T00:08:33;20.35;;;9.75;;
30068;SDS011;16894;49.456;10.644;2022-10-26T00:10:59;39.27;;;13.90;;
30068;SDS011;16894;49.456;10.644;2022-10-26T00:13:25;70.20;;;13.93;;
30068;SDS011;16894;49.456;10.644;2022-10-26T00:15:51;22.77;;;11.85;;
30068;SDS011;16894;49.456;10.644;2022-10-26T00:18:17;27.00;;;12.40;;
30068;SDS011;16894;49.456;10.644;2022-10-26T00:20:42;19.67;;;10.13;;
30068;SDS011;16894;49.456;10.644;2022-10-26T00:23:08;21.23;;;10.17;;
30068;SDS011;16894;49.456;10.644;2022-10-26T00:25:33;32.07;;;11.87;;
30068;SDS011;16894;49.456;10.644;2022-10-26T00:27:59;23.87;;;10.23;;
30068;SDS011;16894;49.456;10.644;2022-10-26T00:30:25;17.77;;;11.82;;
30068;SDS011;16894;49.456;10.644;2022-10-26T00:32:51;29.23;;;12.67;;
30068;SDS011;16894;49.456;10.644;2022-10-26T00:35:17;22.80;;;11.55;;
30068;SDS011;16894;49.456;10.644;2022-10-26T00:37:42;23.70;;;11.67;;
30068;SDS011;16894;49.456;10.644;2022-10-26T00:40:08;27.57;;;11.10;;
30068;SDS011;16894;49.456;10.644;2022-10-26T00:42:34;28.50;;;12.90;;
30068;SDS011;16894;49.456;10.644;2022-10-26T00:45:03;29.63;;;11.30;;
30068;SDS011;16894;49.456;10.644;2022-10-26T00:47:44;22.60;;;11.57;;
30068;SDS011;16894;49.456;10.644;2022-10-26T00:50:32;18.75;;;10.55;;
30068;SDS011;16894;49.456;10.644;2022-10-26T00:53:01;25.00;;;12.32;;
30068;SDS011;16894;49.456;10.644;2022-10-26T00:55:34;27.13;;;11.13;;
30068;SDS011;16894;49.456;10.644;2022-10-26T00:58:02;24.95;;;10.35;;
30068;SDS011;16894;49.456;10.644;2022-10-26T01:00:30;25.42;;;10.75;;
30068;SDS011;16894;49.456;10.644;2022-10-26T01:02:56;25.23;;;10.53;;
30068;SDS011;16894;49.456;10.644;2022-10-26T01:05:24;34.33;;;10.82;;
30068;SDS011;16894;49.456;10.644;2022-10-26T01:07:51;27.42;;;10.32;;
30068;SDS011;16894;49.456;10.644;2022-10-26T01:10:18;18.90;;;9.73;;
30068;SDS011;16894;49.456;10.644;2022-10-26T01:12:43;30.20;;;12.13;;
30068;SDS011;16894;49.456;10.644;2022-10-26T01:15:10;33.00;;;11.30;;
30068;SDS011;16894;49.456;10.644;2022-10-26T01:17:42;24.60;;;10.10;;
30068;SDS011;16894;49.456;10.644;2022-10-26T01:20:35;23.33;;;10.20;;
30068;SDS011;16894;49.456;10.644;2022-10-26T01:31:57;21.00;;;9.15;;
30068;SDS011;16894;49.456;10.644;2022-10-26T01:34:33;18.38;;;9.15;;
30068;SDS011;16894;49.456;10.644;2022-10-26T01:37:09;19.90;;;10.15;;
30068;SDS011;16894;49.456;10.644;2022-10-26T01:40:28;24.17;;;10.93;;
30068;SDS011;16894;49.456;10.644;2022-10-26T01:42:32;18.23;;;9.45;;
30068;SDS011;16894;49.456;10.644;2022-10-26T01:45:03;18.90;;;9.23;;
30068;SDS011;16894;49.456;10.644;2022-10-26T01:47:33;18.33;;;9.85;;
30068;SDS011;16894;49.456;10.644;2022-10-26T01:50:02;16.55;;;9.95;;
30068;SDS011;16894;49.456;10.644;2022-10-26T01:52:29;15.50;;;9.50;;
30068;SDS011;16894;49.456;10.644;2022-10-26T01:55:02;19.13;;;11.20;;
30068;SDS011;16894;49.456;10.644;2022-10-26T01:57:49;13.52;;;9.52;;
30068;SDS011;16894;49.456;10.644;2022-10-26T02:00:16;16.00;;;9.48;;
30068;SDS011;16894;49.456;10.644;2022-10-26T02:14:21;28.27;;;9.87;;
30068;SDS011;16894;49.456;10.644;2022-10-26T02:16:27;20.20;;;9.98;;
30068;SDS011;16894;49.456;10.644;2022-10-26T02:18:59;23.40;;;10.00;;
30068;SDS011;16894;49.456;10.644;2022-10-26T02:21:36;19.70;;;10.65;;
30068;SDS011;16894;49.456;10.644;2022-10-26T02:24:05;23.00;;;9.60;;
30068;SDS011;16894;49.456;10.644;2022-10-26T02:26:34;23.30;;;9.75;;
30068;SDS011;16894;49.456;10.644;2022-10-26T02:29:04;14.30;;;9.75;;
30068;SDS011;16894;49.456;10.644;2022-10-26T02:31:32;23.95;;;11.13;;
30068;SDS011;16894;49.456;10.644;2022-10-26T02:34:01;24.48;;;10.40;;
30068;SDS011;16894;49.456;10.644;2022-10-26T02:36:30;14.93;;;9.82;;
30068;SDS011;16894;49.456;10.644;2022-10-26T02:38:58;16.77;;;10.40;;
30068;SDS011;16894;49.456;10.644;2022-10-26T02:41:27;22.85;;;10.95;;
30068;SDS011;16894;49.456;10.644;2022-10-26T02:44:07;13.38;;;9.98;;
30068;SDS011;16894;49.456;10.644;2022-10-26T02:46:51;18.13;;;10.40;;
30068;SDS011;16894;49.456;10.644;2022-10-26T02:49:18;31.67;;;11.18;;
30068;SDS011;16894;49.456;10.644;2022-10-26T02:57:11;22.38;;;10.27;;
30068;SDS011;16894;49.456;10.644;2022-10-26T02:59:42;23.95;;;11.25;;
30068;SDS011;16894;49.456;10.644;2022-10-26T03:02:11;24.60;;;10.88;;
30068;SDS011;16894;49.456;10.644;2022-10-26T03:04:39;18.15;;;11.07;;
30068;SDS011;16894;49.456;10.644;2022-10-26T03:07:05;24.53;;;11.13;;
30068;SDS011;16894;49.456;10.644;2022-10-26T03:09:31;23.20;;;11.20;;
30068;SDS011;16894;49.456;10.644;2022-10-26T03:11:56;16.17;;;11.27;;
30068;SDS011;16894;49.456;10.644;2022-10-26T03:14:22;24.07;;;11.63;;
30068;SDS011;16894;49.456;10.644;2022-10-26T03:16:48;17.70;;;11.50;;
30068;SDS011;16894;49.456;10.644;2022-10-26T03:19:13;20.50;;;11.10;;
30068;SDS011;16894;49.456;10.644;2022-10-26T03:21:39;18.70;;;10.77;;
30068;SDS011;16894;49.456;10.644;2022-10-26T03:24:06;35.53;;;13.10;;
30068;SDS011;16894;49.456;10.644;2022-10-26T03:28:58;24.25;;;12.20;;
30068;SDS011;16894;49.456;10.644;2022-10-26T03:31:24;23.97;;;12.70;;
30068;SDS011;16894;49.456;10.644;2022-10-26T03:33:49;20.03;;;11.93;;
30068;SDS011;16894;49.456;10.644;2022-10-26T03:36:15;18.43;;;13.00;;
30068;SDS011;16894;49.456;10.644;2022-10-26T03:38:41;21.37;;;13.50;;
30068;SDS011;16894;49.456;10.644;2022-10-26T03:41:06;18.77;;;12.67;;
30068;SDS011;16894;49.456;10.644;2022-10-26T03:43:32;27.17;;;14.97;;
30068;SDS011;16894;49.456;10.644;2022-10-26T03:45:57;38.47;;;18.13;;
30068;SDS011;16894;49.456;10.644;2022-10-26T03:48:23;38.63;;;18.93;;
30068;SDS011;16894;49.456;10.644;2022-10-26T03:50:49;36.20;;;18.07;;
30068;SDS011;16894;49.456;10.644;2022-10-26T03:53:14;19.77;;;14.23;;
30068;SDS011;16894;49.456;10.644;2022-10-26T03:55:42;30.47;;;14.47;;
30068;SDS011;16894;49.456;10.644;2022-10-26T03:58:09;23.63;;;14.18;;
30068;SDS011;16894;49.456;10.644;2022-10-26T04:00:34;23.50;;;15.57;;
30068;SDS011;16894;49.456;10.644;2022-10-26T04:03:00;27.37;;;14.90;;
30068;SDS011;16894;49.456;10.644;2022-10-26T04:05:26;21.10;;;14.20;;
30068;SDS011;16894;49.456;10.644;2022-10-26T04:07:56;24.63;;;15.95;;
30068;SDS011;16894;49.456;10.644;2022-10-26T04:10:24;23.35;;;14.80;;
30068;SDS011;16894;49.456;10.644;2022-10-26T04:12:51;27.15;;;16.15;;
30068;SDS011;16894;49.456;10.644;2022-10-26T04:15:17;33.35;;;21.33;;
30068;SDS011;16894;49.456;10.644;2022-10-26T04:17:43;31.60;;;18.95;;
30068;SDS011;16894;49.456;10.644;2022-10-26T04:20:09;37.03;;;22.57;;
30068;SDS011;16894;49.456;10.644;2022-10-26T04:22:35;29.05;;;18.67;;
30068;SDS011;16894;49.456;10.644;2022-10-26T04:25:01;29.67;;;16.52;;
30068;SDS011;16894;49.456;10.644;2022-10-26T04:27:28;47.00;;;20.60;;
30068;SDS011;16894;49.456;10.644;2022-10-26T04:29:53;33.17;;;17.43;;
30068;SDS011;16894;49.456;10.644;2022-10-26T04:32:19;32.83;;;16.33;;
30068;SDS011;16894;49.456;10.644;2022-10-26T04:34:44;36.47;;;17.27;;
30068;SDS011;16894;49.456;10.644;2022-10-26T04:37:10;31.60;;;13.07;;
30068;SDS011;16894;49.456;10.644;2022-10-26T04:39:36;21.83;;;13.17;;
30068;SDS011;16894;49.456;10.644;2022-10-26T04:42:02;23.07;;;13.63;;
30068;SDS011;16894;49.456;10.644;2022-10-26T04:44:27;19.30;;;12.18;;
30068;SDS011;16894;49.456;10.644;2022-10-26T04:46:53;22.83;;;12.50;;
30068;SDS011;16894;49.456;10.644;2022-10-26T04:49:19;40.87;;;16.40;;
30068;SDS011;16894;49.456;10.644;2022-10-26T04:51:44;25.38;;;14.40;;
30068;SDS011;16894;49.456;10.644;2022-10-26T04:54:10;27.23;;;15.67;;
30068;SDS011;16894;49.456;10.644;2022-10-26T04:56:36;36.93;;;16.30;;
30068;SDS011;16894;49.456;10.644;2022-10-26T04:59:01;23.53;;;15.40;;
30068;SDS011;16894;49.456;10.644;2022-10-26T05:01:27;23.77;;;15.55;;
30068;SDS011;16894;49.456;10.644;2022-10-26T05:03:54;31.15;;;15.20;;
30068;SDS011;16894;49.456;10.644;2022-10-26T05:06:20;24.97;;;15.07;;
30068;SDS011;16894;49.456;10.644;2022-10-26T05:08:46;31.60;;;17.23;;
30068;SDS011;16894;49.456;10.644;2022-10-26T05:11:12;31.30;;;15.82;;
30068;SDS011;16894;49.456;10.644;2022-10-26T05:13:38;32.30;;;17.73;;
30068;SDS011;16894;49.456;10.644;2022-10-26T05:16:04;30.07;;;17.60;;
30068;SDS011;16894;49.456;10.644;2022-10-26T05:18:30;31.88;;;17.05;;
30068;SDS011;16894;49.456;10.644;2022-10-26T05:20:56;42.63;;;15.10;;
30068;SDS011;16894;49.456;10.644;2022-10-26T05:23:21;27.40;;;12.40;;
30068;SDS011;16894;49.456;10.644;2022-10-26T05:25:47;26.45;;;13.20;;
30068;SDS011;16894;49.456;10.644;2022-10-26T05:28:14;25.08;;;15.35;;
30068;SDS011;16894;49.456;10.644;2022-10-26T05:30:41;51.20;;;23.45;;
30068;SDS011;16894;49.456;10.644;2022-10-26T05:33:08;50.10;;;25.98;;
30068;SDS011;16894;49.456;10.644;2022-10-26T05:35:35;46.78;;;27.48;;
30068;SDS011;16894;49.456;10.644;2022-10-26T05:38:22;55.72;;;26.55;;
30068;SDS011;16894;49.456;10.644;2022-10-26T05:40:48;33.25;;;16.85;;
30068;SDS011;16894;49.456;10.644;2022-10-26T05:43:18;27.60;;;15.63;;
30068;SDS011;16894;49.456;10.644;2022-10-26T05:45:45;132.35;;;51.40;;
30068;SDS011;16894;49.456;10.644;2022-10-26T05:48:11;108.03;;;46.67;;
30068;SDS011;16894;49.456;10.644;2022-10-26T05:50:37;91.90;;;42.75;;
30068;SDS011;16894;49.456;10.644;2022-10-26T05:53:02;39.80;;;19.38;;
30068;SDS011;16894;49.456;10.644;2022-10-26T05:55:28;23.40;;;13.00;;
30068;SDS011;16894;49.456;10.644;2022-10-26T05:57:54;22.60;;;12.88;;
30068;SDS011;16894;49.456;10.644;2022-10-26T06:00:21;22.80;;;12.85;;
30068;SDS011;16894;49.456;10.644;2022-10-26T06:03:00;21.88;;;11.93;;
30068;SDS011;16894;49.456;10.644;2022-10-26T06:05:32;30.83;;;14.10;;
30068;SDS011;16894;49.456;10.644;2022-10-26T06:08:07;27.33;;;14.43;;
30068;SDS011;16894;49.456;10.644;2022-10-26T06:10:34;42.05;;;18.23;;
30068;SDS011;16894;49.456;10.644;2022-10-26T06:13:00;39.03;;;21.13;;
30068;SDS011;16894;49.456;10.644;2022-10-26T06:15:26;28.45;;;18.00;;
30068;SDS011;16894;49.456;10.644;2022-10-26T06:26:12;24.63;;;12.82;;
30068;SDS011;16894;49.456;10.644;2022-10-26T06:28:58;34.63;;;15.00;;
30068;SDS011;16894;49.456;10.644;2022-10-26T06:31:35;21.33;;;12.95;;
30068;SDS011;16894;49.456;10.644;2022-10-26T06:34:01;27.38;;;14.73;;
30068;SDS011;16894;49.456;10.644;2022-10-26T06:36:27;24.08;;;12.15;;
30068;SDS011;16894;49.456;10.644;2022-10-26T06:38:55;35.67;;;13.95;;
30068;SDS011;16894;49.456;10.644;2022-10-26T06:41:29;27.67;;;15.82;;
30068;SDS011;16894;49.456;10.644;2022-10-26T06:43:57;29.98;;;13.75;;
30068;SDS011;16894;49.456;10.644;2022-10-26T06:49:17;24.88;;;13.20;;
30068;SDS011;16894;49.456;10.644;2022-10-26T06:51:50;20.40;;;11.98;;
30068;SDS011;16894;49.456;10.644;2022-10-26T06:54:21;24.17;;;11.57;;
30068;SDS011;16894;49.456;10.644;2022-10-26T06:57:03;28.40;;;13.25;;
30068;SDS011;16894;49.456;10.644;2022-10-26T06:59:37;26.98;;;16.20;;
30068;SDS011;16894;49.456;10.644;2022-10-26T07:02:08;28.83;;;14.13;;
30068;SDS011;16894;49.456;10.644;2022-10-26T07:04:35;26.10;;;13.60;;
30068;SDS011;16894;49.456;10.644;2022-10-26T07:07:01;33.90;;;14.97;;
30068;SDS011;16894;49.456;10.644;2022-10-26T07:09:27;26.08;;;15.02;;
30068;SDS011;16894;49.456;10.644;2022-10-26T07:11:52;25.70;;;15.27;;
30068;SDS011;16894;49.456;10.644;2022-10-26T07:14:18;23.53;;;14.83;;
30068;SDS011;16894;49.456;10.644;2022-10-26T07:16:44;23.60;;;14.53;;
30068;SDS011;16894;49.456;10.644;2022-10-26T07:19:09;20.07;;;12.90;;
30068;SDS011;16894;49.456;10.644;2022-10-26T07:21:35;26.03;;;14.27;;
30068;SDS011;16894;49.456;10.644;2022-10-26T07:24:01;21.87;;;15.13;;
30068;SDS011;16894;49.456;10.644;2022-10-26T07:26:26;20.88;;;11.75;;
30068;SDS011;16894;49.456;10.644;2022-10-26T07:28:52;35.97;;;13.60;;
30068;SDS011;16894;49.456;10.644;2022-10-26T07:31:18;25.67;;;15.70;;
30068;SDS011;16894;49.456;10.644;2022-10-26T07:33:43;30.40;;;16.27;;
30068;SDS011;16894;49.456;10.644;2022-10-26T07:36:09;29.53;;;13.67;;
30068;SDS011;16894;49.456;10.644;2022-10-26T07:38:36;29.17;;;12.45;;
30068;SDS011;16894;49.456;10.644;2022-10-26T07:41:02;19.48;;;12.00;;
30068;SDS011;16894;49.456;10.644;2022-10-26T07:43:28;17.20;;;11.65;;
30068;SDS011;16894;49.456;10.644;2022-10-26T07:45:54;17.77;;;11.73;;
30068;SDS011;16894;49.456;10.644;2022-10-26T07:48:19;16.27;;;11.03;;
30068;SDS011;16894;49.456;10.644;2022-10-26T07:50:45;18.90;;;10.83;;
30068;SDS011;16894;49.456;10.644;2022-10-26T07:53:11;16.90;;;8.97;;
30068;SDS011;16894;49.456;10.644;2022-10-26T07:55:37;28.98;;;10.80;;
30068;SDS011;16894;49.456;10.644;2022-10-26T07:58:02;15.67;;;9.47;;
30068;SDS011;16894;49.456;10.644;2022-10-26T08:00:28;19.17;;;9.43;;
30068;SDS011;16894;49.456;10.644;2022-10-26T08:02:54;15.43;;;9.25;;
30068;SDS011;16894;49.456;10.644;2022-10-26T08:05:20;12.15;;;7.90;;
30068;SDS011;16894;49.456;10.644;2022-10-26T08:07:46;12.77;;;9.27;;
30068;SDS011;16894;49.456;10.644;2022-10-26T08:10:12;17.53;;;9.00;;
30068;SDS011;16894;49.456;10.644;2022-10-26T08:12:39;13.55;;;9.70;;
30068;SDS011;16894;49.456;10.644;2022-10-26T08:17:31;20.00;;;11.40;;
30068;SDS011;16894;49.456;10.644;2022-10-26T08:19:57;26.98;;;12.60;;
30068;SDS011;16894;49.456;10.644;2022-10-26T08:22:23;25.27;;;13.23;;
30068;SDS011;16894;49.456;10.644;2022-10-26T08:24:49;18.27;;;11.37;;
30068;SDS011;16894;49.456;10.644;2022-10-26T08:27:14;16.07;;;10.30;;
30068;SDS011;16894;49.456;10.644;2022-10-26T08:29:41;16.42;;;10.30;;
30068;SDS011;16894;49.456;10.644;2022-10-26T08:32:06;15.60;;;9.85;;
30068;SDS011;16894;49.456;10.644;2022-10-26T08:34:32;28.40;;;12.05;;
30068;SDS011;16894;49.456;10.644;2022-10-26T08:36:58;17.40;;;12.88;;
30068;SDS011;16894;49.456;10.644;2022-10-26T08:39:24;26.97;;;12.23;;
30068;SDS011;16894;49.456;10.644;2022-10-26T08:41:54;20.60;;;11.45;;
30068;SDS011;16894;49.456;10.644;2022-10-26T08:44:34;26.58;;;13.45;;
30068;SDS011;16894;49.456;10.644;2022-10-26T08:47:06;20.63;;;11.25;;
30068;SDS011;16894;49.456;10.644;2022-10-26T08:52:16;19.27;;;11.05;;
30068;SDS011;16894;49.456;10.644;2022-10-26T08:54:56;21.92;;;12.70;;
30068;SDS011;16894;49.456;10.644;2022-10-26T08:57:28;24.25;;;15.13;;
30068;SDS011;16894;49.456;10.644;2022-10-26T09:00:04;19.58;;;13.95;;
30068;SDS011;16894;49.456;10.644;2022-10-26T09:02:31;24.45;;;18.23;;
30068;SDS011;16894;49.456;10.644;2022-10-26T09:04:57;41.35;;;31.55;;
30068;SDS011;16894;49.456;10.644;2022-10-26T09:18:40;21.63;;;15.38;;
30068;SDS011;16894;49.456;10.644;2022-10-26T09:21:24;14.95;;;13.43;;
30068;SDS011;16894;49.456;10.644;2022-10-26T09:26:36;14.60;;;11.57;;
30068;SDS011;16894;49.456;10.644;2022-10-26T09:29:06;14.93;;;11.35;;
30068;SDS011;16894;49.456;10.644;2022-10-26T09:31:38;12.88;;;10.93;;
30068;SDS011;16894;49.456;10.644;2022-10-26T09:34:18;14.05;;;8.77;;
30068;SDS011;16894;49.456;10.644;2022-10-26T09:37:25;13.00;;;8.93;;
30068;SDS011;16894;49.456;10.644;2022-10-26T09:40:15;26.98;;;14.85;;
30068;SDS011;16894;49.456;10.644;2022-10-26T09:42:57;31.08;;;28.30;;
30068;SDS011;16894;49.456;10.644;2022-10-26T09:47:52;28.65;;;26.13;;
30068;SDS011;16894;49.456;10.644;2022-10-26T09:52:57;24.80;;;22.60;;
30068;SDS011;16894;49.456;10.644;2022-10-26T09:55:23;22.33;;;20.20;;
30068;SDS011;16894;49.456;10.644;2022-10-26T09:57:55;16.13;;;14.57;;
30068;SDS011;16894;49.456;10.644;2022-10-26T10:00:24;15.07;;;11.95;;
30068;SDS011;16894;49.456;10.644;2022-10-26T10:02:52;11.02;;;9.90;;
30068;SDS011;16894;49.456;10.644;2022-10-26T10:05:21;9.95;;;8.60;;
30068;SDS011;16894;49.456;10.644;2022-10-26T10:07:47;12.75;;;10.95;;
30068;SDS011;16894;49.456;10.644;2022-10-26T10:10:17;11.57;;;10.23;;
30068;SDS011;16894;49.456;10.644;2022-10-26T10:12:44;12.65;;;8.25;;
30068;SDS011;16894;49.456;10.644;2022-10-26T10:15:21;13.43;;;6.43;;
30068;SDS011;16894;49.456;10.644;2022-10-26T10:17:52;14.95;;;4.75;;
30068;SDS011;16894;49.456;10.644;2022-10-26T10:20:25;9.55;;;4.97;;
30068;SDS011;16894;49.456;10.644;2022-10-26T10:22:59;14.63;;;4.78;;
30068;SDS011;16894;49.456;10.644;2022-10-26T10:25:36;9.38;;;4.47;;
30068;SDS011;16894;49.456;10.644;2022-10-26T10:28:23;14.68;;;4.57;;
30068;SDS011;16894;49.456;10.644;2022-10-26T10:30:54;7.90;;;5.07;;
30068;SDS011;16894;49.456;10.644;2022-10-26T10:36:00;15.02;;;5.13;;
30068;SDS011;16894;49.456;10.644;2022-10-26T10:38:28;12.57;;;4.88;;
30068;SDS011;16894;49.456;10.644;2022-10-26T10:40:55;7.88;;;4.35;;
30068;SDS011;16894;49.456;10.644;2022-10-26T10:43:22;5.22;;;3.90;;
30068;SDS011;16894;49.456;10.644;2022-10-26T10:45:50;5.47;;;4.35;;
30068;SDS011;16894;49.456;10.644;2022-10-26T10:48:19;13.02;;;4.00;;
30068;SDS011;16894;49.456;10.644;2022-10-26T10:50:58;7.35;;;5.38;;
30068;SDS011;16894;49.456;10.644;2022-10-26T10:59:03;9.80;;;5.10;;
30068;SDS011;16894;49.456;10.644;2022-10-26T11:01:41;12.73;;;4.30;;
30068;SDS011;16894;49.456;10.644;2022-10-26T11:07:20;9.05;;;4.82;;
30068;SDS011;16894;49.456;10.644;2022-10-26T11:09:49;7.35;;;3.95;;
30068;SDS011;16894;49.456;10.644;2022-10-26T11:12:18;8.25;;;4.15;;
30068;SDS011;16894;49.456;10.644;2022-10-26T11:14:53;8.02;;;4.22;;
30068;SDS011;16894;49.456;10.644;2022-10-26T11:17:29;16.23;;;4.47;;
30068;SDS011;16894;49.456;10.644;2022-10-26T11:20:03;14.30;;;4.60;;
30068;SDS011;16894;49.456;10.644;2022-10-26T11:25:29;13.95;;;5.38;;
30068;SDS011;16894;49.456;10.644;2022-10-26T11:28:05;24.40;;;5.40;;
30068;SDS011;16894;49.456;10.644;2022-10-26T11:30:35;12.80;;;4.68;;
30068;SDS011;16894;49.456;10.644;2022-10-26T11:35:51;13.10;;;4.28;;
30068;SDS011;16894;49.456;10.644;2022-10-26T11:41:04;15.05;;;4.93;;
30068;SDS011;16894;49.456;10.644;2022-10-26T11:43:40;12.10;;;5.28;;
30068;SDS011;16894;49.456;10.644;2022-10-26T11:57:00;9.82;;;5.03;;
30068;SDS011;16894;49.456;10.644;2022-10-26T11:59:29;7.75;;;4.70;;
30068;SDS011;16894;49.456;10.644;2022-10-26T12:07:02;10.13;;;5.88;;
30068;SDS011;16894;49.456;10.644;2022-10-26T12:09:33;12.57;;;5.63;;
30068;SDS011;16894;49.456;10.644;2022-10-26T12:12:10;8.77;;;5.85;;
30068;SDS011;16894;49.456;10.644;2022-10-26T12:20:17;13.80;;;6.05;;
30068;SDS011;16894;49.456;10.644;2022-10-26T12:22:49;13.43;;;5.07;;
30068;SDS011;16894;49.456;10.644;2022-10-26T12:32:58;21.70;;;5.72;;
30068;SDS011;16894;49.456;10.644;2022-10-26T12:37:57;12.40;;;5.00;;
30068;SDS011;16894;49.456;10.644;2022-10-26T12:42:56;8.57;;;4.88;;
30068;SDS011;16894;49.456;10.644;2022-10-26T12:45:46;7.28;;;3.88;;
30068;SDS011;16894;49.456;10.644;2022-10-26T12:48:53;9.20;;;3.80;;
30068;SDS011;16894;49.456;10.644;2022-10-26T12:56:23;13.10;;;3.38;;
30068;SDS011;16894;49.456;10.644;2022-10-26T12:59:29;20.67;;;4.10;;
30068;SDS011;16894;49.456;10.644;2022-10-26T13:07:35;16.67;;;5.10;;
30068;SDS011;16894;49.456;10.644;2022-10-26T13:10:16;8.77;;;3.95;;
30068;SDS011;16894;49.456;10.644;2022-10-26T13:12:52;13.82;;;8.65;;
30068;SDS011;16894;49.456;10.644;2022-10-26T13:18:15;9.15;;;6.97;;
30068;SDS011;16894;49.456;10.644;2022-10-26T13:26:11;20.40;;;18.55;;
30068;SDS011;16894;49.456;10.644;2022-10-26T13:31:09;8.32;;;7.53;;
30068;SDS011;16894;49.456;10.644;2022-10-26T13:33:42;11.77;;;8.32;;
30068;SDS011;16894;49.456;10.644;2022-10-26T13:39:09;14.20;;;8.98;;
30068;SDS011;16894;49.456;10.644;2022-10-26T13:41:46;8.75;;;7.68;;
30068;SDS011;16894;49.456;10.644;2022-10-26T13:44:24;8.50;;;6.53;;
30068;SDS011;16894;49.456;10.644;2022-10-26T13:47:02;15.23;;;6.60;;
30068;SDS011;16894;49.456;10.644;2022-10-26T13:49:33;9.07;;;6.70;;
30068;SDS011;16894;49.456;10.644;2022-10-26T13:52:03;10.35;;;6.95;;
30068;SDS011;16894;49.456;10.644;2022-10-26T13:54:50;14.80;;;5.72;;
30068;SDS011;16894;49.456;10.644;2022-10-26T13:59:55;10.23;;;6.07;;
30068;SDS011;16894;49.456;10.644;2022-10-26T14:02:24;9.63;;;4.35;;
30068;SDS011;16894;49.456;10.644;2022-10-26T14:04:52;11.68;;;4.47;;
30068;SDS011;16894;49.456;10.644;2022-10-26T14:07:24;14.40;;;4.65;;
30068;SDS011;16894;49.456;10.644;2022-10-26T14:09:56;9.65;;;5.55;;
30068;SDS011;16894;49.456;10.644;2022-10-26T14:14:49;7.78;;;5.05;;
30068;SDS011;16894;49.456;10.644;2022-10-26T14:17:17;10.50;;;4.47;;
30068;SDS011;16894;49.456;10.644;2022-10-26T14:19:45;9.98;;;6.43;;
30068;SDS011;16894;49.456;10.644;2022-10-26T14:22:21;9.60;;;6.78;;
30068;SDS011;16894;49.456;10.644;2022-10-26T14:24:55;11.38;;;6.88;;
30068;SDS011;16894;49.456;10.644;2022-10-26T14:27:24;11.05;;;7.50;;
30068;SDS011;16894;49.456;10.644;2022-10-26T14:29:51;12.55;;;7.28;;
30068;SDS011;16894;49.456;10.644;2022-10-26T14:32:36;12.13;;;7.82;;
30068;SDS011;16894;49.456;10.644;2022-10-26T14:35:02;9.02;;;6.10;;
30068;SDS011;16894;49.456;10.644;2022-10-26T14:40:17;11.73;;;6.10;;
30068;SDS011;16894;49.456;10.644;2022-10-26T14:42:46;9.00;;;6.30;;
30068;SDS011;16894;49.456;10.644;2022-10-26T14:48:01;9.60;;;5.50;;
30068;SDS011;16894;49.456;10.644;2022-10-26T14:50:29;14.55;;;5.60;;
30068;SDS011;16894;49.456;10.644;2022-10-26T14:53:00;7.97;;;6.38;;
30068;SDS011;16894;49.456;10.644;2022-10-26T14:55:46;14.75;;;5.28;;
30068;SDS011;16894;49.456;10.644;2022-10-26T14:58:25;8.57;;;5.55;;
30068;SDS011;16894;49.456;10.644;2022-10-26T15:03:47;16.80;;;8.40;;
30068;SDS011;16894;49.456;10.644;2022-10-26T15:09:00;23.15;;;10.05;;
30068;SDS011;16894;49.456;10.644;2022-10-26T15:11:29;23.08;;;10.57;;
30068;SDS011;16894;49.456;10.644;2022-10-26T15:13:57;22.90;;;10.10;;
30068;SDS011;16894;49.456;10.644;2022-10-26T15:16:24;17.50;;;8.38;;
30068;SDS011;16894;49.456;10.644;2022-10-26T15:18:53;12.70;;;6.43;;
30068;SDS011;16894;49.456;10.644;2022-10-26T15:21:37;18.15;;;6.18;;
30068;SDS011;16894;49.456;10.644;2022-10-26T15:26:59;27.92;;;8.13;;
30068;SDS011;16894;49.456;10.644;2022-10-26T15:29:37;17.80;;;6.50;;
30068;SDS011;16894;49.456;10.644;2022-10-26T15:34:29;12.90;;;7.53;;
30068;SDS011;16894;49.456;10.644;2022-10-26T15:36:55;13.48;;;6.25;;
30068;SDS011;16894;49.456;10.644;2022-10-26T15:39:21;16.15;;;5.75;;
30068;SDS011;16894;49.456;10.644;2022-10-26T15:41:47;11.75;;;5.88;;
30068;SDS011;16894;49.456;10.644;2022-10-26T15:44:14;14.63;;;7.78;;
30068;SDS011;16894;49.456;10.644;2022-10-26T15:46:43;10.35;;;6.15;;
30068;SDS011;16894;49.456;10.644;2022-10-26T15:49:16;12.88;;;7.05;;
30068;SDS011;16894;49.456;10.644;2022-10-26T15:51:44;14.63;;;7.38;;
30068;SDS011;16894;49.456;10.644;2022-10-26T15:54:11;12.93;;;8.88;;
30068;SDS011;16894;49.456;10.644;2022-10-26T15:56:36;16.37;;;10.40;;
30068;SDS011;16894;49.456;10.644;2022-10-26T15:59:04;19.40;;;12.07;;
30068;SDS011;16894;49.456;10.644;2022-10-26T16:01:41;21.27;;;10.52;;
30068;SDS011;16894;49.456;10.644;2022-10-26T16:04:07;27.20;;;11.38;;
30068;SDS011;16894;49.456;10.644;2022-10-26T16:06:35;17.77;;;11.10;;
30068;SDS011;16894;49.456;10.644;2022-10-26T16:09:04;21.80;;;10.50;;
30068;SDS011;16894;49.456;10.644;2022-10-26T16:11:31;20.90;;;9.98;;
30068;SDS011;16894;49.456;10.644;2022-10-26T16:13:57;28.25;;;10.43;;
30068;SDS011;16894;49.456;10.644;2022-10-26T16:16:23;16.08;;;10.98;;
30068;SDS011;16894;49.456;10.644;2022-10-26T16:18:53;24.48;;;12.85;;
30068;SDS011;16894;49.456;10.644;2022-10-26T16:21:19;25.27;;;12.88;;
30068;SDS011;16894;49.456;10.644;2022-10-26T16:23:47;28.92;;;14.10;;
30068;SDS011;16894;49.456;10.644;2022-10-26T16:26:15;37.65;;;16.55;;
30068;SDS011;16894;49.456;10.644;2022-10-26T16:28:40;48.15;;;20.15;;
30068;SDS011;16894;49.456;10.644;2022-10-26T16:31:07;33.13;;;16.90;;
30068;SDS011;16894;49.456;10.644;2022-10-26T16:33:37;27.70;;;13.60;;
30068;SDS011;16894;49.456;10.644;2022-10-26T16:36:03;27.30;;;11.67;;
30068;SDS011;16894;49.456;10.644;2022-10-26T16:38:30;15.95;;;8.93;;
30068;SDS011;16894;49.456;10.644;2022-10-26T16:43:30;20.45;;;8.25;;
30068;SDS011;16894;49.456;10.644;2022-10-26T16:45:57;19.02;;;7.25;;
30068;SDS011;16894;49.456;10.644;2022-10-26T16:48:22;20.30;;;11.50;;
30068;SDS011;16894;49.456;10.644;2022-10-26T16:50:48;14.07;;;9.63;;
30068;SDS011;16894;49.456;10.644;2022-10-26T16:53:14;47.83;;;21.77;;
30068;SDS011;16894;49.456;10.644;2022-10-26T16:55:39;49.90;;;31.13;;
30068;SDS011;16894;49.456;10.644;2022-10-26T16:58:05;40.73;;;21.83;;
30068;SDS011;16894;49.456;10.644;2022-10-26T17:00:33;25.40;;;13.20;;
30068;SDS011;16894;49.456;10.644;2022-10-26T17:02:59;27.90;;;15.13;;
30068;SDS011;16894;49.456;10.644;2022-10-26T17:05:27;18.13;;;7.85;;
30068;SDS011;16894;49.456;10.644;2022-10-26T17:10:19;24.90;;;11.68;;
30068;SDS011;16894;49.456;10.644;2022-10-26T17:12:44;24.10;;;11.73;;
30068;SDS011;16894;49.456;10.644;2022-10-26T17:15:10;26.30;;;14.30;;